Jack C. Davis Observatory, Carson City, Nevada Weather observations

Data are for observation ending at time listed.
 Day   Time    Ave.   Ave.  Ave.  Vector   Max.   Stn.    Total    Solar   Ave.  
  of    of     Air    Rel.  Wind   Wind    Wind   Baro.  Precip.   Rad.    Soil  
Year   Day     Temp.  Hum.  Speed  Dir.    Gust   Pres.                    Temp. 
2016   (PST)    F      %     mph   deg.    mph     mb.     in.     W/m2     F   
------------------------------------------------------------------------------
 239   11:00   79.4    13    3.7    42      6.6   600.7    0.00     867    999.0
 239   11:10   80.5    13    4.5   107      9.1   600.3    0.00     878    999.0
 239   11:20   80.9    13    4.2    94      8.4   600.3    0.00     885    999.0
 239   11:30   81.4    13    5.3   113     11.0   600.4    0.00     895    999.0
 239   11:40   82.0    12    3.7   106      8.3   600.5    0.00     900    999.0
 239   11:50   81.9    13    3.3    88      7.7   600.7    0.00     900    999.0
 239   12:00   82.9    12    4.7   105     11.5   600.4    0.00     901    999.0
 239   12:10   82.5    13    3.5    90      9.1   600.8    0.00     895    999.0
 239   12:20   85.0    12    7.1   272     16.2   600.6    0.00     887    999.0
 239   12:30   84.7    12    9.6   269     17.2   600.1    0.00     880    999.0
 239   12:40   84.4    12    8.6   245     17.8   600.2    0.00     876    999.0
 239   12:50   84.6    12    9.2   226     15.1   600.2    0.00     866    999.0
 239   13:00   84.7    12    9.6   227     17.8   600.1    0.00     861    999.0
 239   13:10   85.1    13    8.8   263     16.7   600.5    0.00     854    999.0
 239   13:20   85.1    13    8.8   258     18.2   600.7    0.00     847    999.0
 239   13:30   84.5    13   11.5   239     18.3   600.1    0.00     838    999.0
 239   13:40   85.1    13   10.2   250     18.4   600.1    0.00     823    999.0
 239   13:50   85.0    13   11.4   247     22.4   600.1    0.00     807    999.0
 239   14:00   84.3    13   12.1   258     21.2   600.1    0.00     790    999.0
 239   14:10   84.8    13   11.2   272     16.6   600.1    0.00     771    999.0
 239   14:20   85.1    13   11.0   260     18.6   600.1    0.00     752    999.0
 239   14:30   84.6    13   12.2   266     19.2   600.3    0.00     728    999.0
 239   14:40   84.4    13   12.2   264     21.8   600.3    0.00     703    999.0
 239   14:50   85.0    13   10.4   266     20.2   600.7    0.00     680    999.0
 239   15:00   85.1    13   10.6   270     19.3   600.8    0.00     661    999.0
 239   15:10   84.9    13   11.3   266     17.3   600.8    0.00     631    999.0
 239   15:20   84.5    13   12.4   274     21.1   600.8    0.00     602    999.0
 239   15:30   83.7    14   13.8   261     21.6   600.7    0.00     573    999.0
 239   15:40   83.2    14   14.2   263     21.9   600.2    0.00     542    999.0
 239   15:50   82.8    14   15.1   262     22.0   600.1    0.00     510    999.0
 239   16:00   82.5    14   14.2   265     22.4   600.1    0.00     480    999.0
 239   16:10   82.3    14   14.9   264     23.5   600.1    0.00     446    999.0
 239   16:20   81.6    14   16.0   257     23.8   600.2    0.00     411    999.0
 239   16:30   81.4    14   16.1   260     26.7   600.1    0.00     377    999.0
 239   16:40   80.8    14   15.7   258     26.2   600.1    0.00     343    999.0
 239   16:50   80.3    14   17.2   260     27.5   600.1    0.00     311    999.0
 239   17:00   80.0    15   14.3   261     25.5   600.1    0.00     270    999.0
 239   17:10   79.6    15   15.2   260     24.0   600.1    0.00     232    999.0
 239   17:20   78.9    16   15.5   267     26.6   600.1    0.00     192    999.0
 239   17:30   78.2    16   18.0   268     27.0   600.1    0.00     162    999.0
 239   17:40   77.6    17   15.5   269     22.3   600.1    0.00     111    999.0
 239   17:50   76.7    18   15.6   268     28.0   600.2    0.00      31    999.0
 239   18:00   76.3    19   15.3   265     24.3   600.1    0.00      26    999.0
 239   18:10   76.0    19   16.1   266     26.6   600.2    0.00      21    999.0
 239   18:20   75.8    19   16.4   261     30.0   600.1    0.00      16    999.0
 239   18:30   75.4    20   15.8   262     24.8   600.1    0.00      11    999.0
 239   18:40   75.0    21   14.6   267     23.5   600.1    0.00       5    999.0
 239   18:50   74.6    22   13.9   267     25.9   600.1    0.00       2    999.0
 239   19:00   74.1    22   12.1   265     18.5   600.1    0.00       1    999.0
 239   19:10   74.0    23   12.0   262     19.3   600.1    0.00       1    999.0
 239   19:20   73.7    23   10.5   260     16.2   600.2    0.00       0    999.0
 239   19:30   73.6    22    8.8   261     16.9   600.1    0.00       0    999.0
 239   19:40   73.5    22    4.6   126     10.8   600.3    0.00       0    999.0
 239   19:50   73.8    21    5.7   207     16.7   600.5    0.00       0    999.0
 239   20:00   73.1    22    4.8   238     14.0   600.5    0.00       0    999.0
 239   20:10   72.2    23    4.9   225     11.8   600.5    0.00       0    999.0
 239   20:20   72.0    23    5.3   237     13.1   600.5    0.00       0    999.0
 239   20:30   71.9    24    8.4   227     17.8   600.7    0.00       0    999.0
 239   20:40   71.9    24    9.5   236     14.8   600.7    0.00       0    999.0
 239   20:50   72.0    24    9.3   222     14.8   600.7    0.00       0    999.0
 239   21:00   71.2    25    7.9   236     15.6   600.7    0.00       0    999.0
 239   21:10   70.7    25    6.6   240     13.0   600.7    0.00       0    999.0
 239   21:20   70.7    24    5.4   252     10.2   600.7    0.00       0    999.0
 239   21:30   70.3    24    5.6   254     11.9   600.7    0.00       0    999.0
 239   21:40   69.7    24    4.4   260     10.1   600.7    0.00       0    999.0
 239   21:50   69.8    22    4.5   226     13.0   600.7    0.00       0    999.0
 239   22:00   69.0    23    2.3   156      7.4   600.7    0.00       0    999.0
 239   22:10   68.6    25    1.9    36      4.6   600.7    0.00       0    999.0
 239   22:20   66.8    26    2.7   312      4.4   600.7    0.00       0    999.0
 239   22:30   64.5    27    3.5   267      5.0   600.7    0.00       0    999.0
 239   22:40   63.6    28    4.3   252      7.5   600.7    0.00       0    999.0
 239   22:50   64.7    28    3.7   259      5.7   600.7    0.00       1    999.0
 239   23:00   63.5    28    5.8   260      7.7   600.7    0.00       1    999.0
 239   23:10   62.9    29    3.1   286      6.0   600.7    0.00       1    999.0
 239   23:20   65.1    27    1.3   204      3.4   600.7    0.00       0    999.0
 239   23:30   63.1    29    3.4   274      5.0   600.7    0.00       1    999.0
 239   23:40   61.2    31    5.7   267      7.1   600.7    0.00       1    999.0
 239   23:50   60.8    30    5.9   261      7.5   600.7    0.00       1    999.0
 240    0:00   61.0    31    5.1   261      6.6   600.7    0.00       0    999.0
 240    0:10   61.4    30    4.1   292      7.3   600.7    0.00       0    999.0
 240    0:20   61.2    30    4.7   285      6.8   600.7    0.00       1    999.0
 240    0:30   61.5    30    3.5   314      5.4   600.7    0.00       1    999.0
 240    0:40   60.2    32    4.6   280      7.8   600.7    0.00       1    999.0
 240    0:50   59.8    32    3.5   286      5.0   600.7    0.00       1    999.0
 240    1:00   59.8    32    4.3   285      6.6   600.7    0.00       1    999.0
 240    1:10   59.9    31    4.8   272      6.3   600.7    0.00       1    999.0
 240    1:20   60.0    30    3.9   279      5.4   600.7    0.00       0    999.0
 240    1:30   59.4    31    3.4   280      6.0   600.7    0.00       1    999.0
 240    1:40   59.3    30    3.7   286      5.7   600.7    0.00       1    999.0
 240    1:50   60.7    31    1.3    20      2.2   600.7    0.00       1    999.0
 240    2:00   59.3    33    2.4   269      4.3   600.7    0.00       1    999.0
 240    2:10   58.1    35    3.1   282      5.4   600.7    0.00       1    999.0
 240    2:20   56.9    37    2.3   303      3.6   600.7    0.00       1    999.0
 240    2:30   56.6    38    3.1   270      4.0   600.7    0.00       1    999.0
 240    2:40   56.1    39    4.1   265      5.1   600.7    0.00       1    999.0
 240    2:50   55.7    39    4.6   268      5.8   600.7    0.00       1    999.0
 240    3:00   55.5    39    4.3   271      6.1   600.7    0.00       1    999.0
 240    3:10   55.1    40    3.6   275      5.3   600.7    0.00       1    999.0
 240    3:20   56.0    37    4.1   269      5.6   600.7    0.00       1    999.0
 240    3:30   55.6    38    5.1   263      6.5   600.7    0.00       1    999.0
 240    3:40   55.3    39    4.5   272      6.6   600.7    0.00       1    999.0
 240    3:50   55.0    40    3.8   281      5.7   600.6    0.00       1    999.0
 240    4:00   55.8    38    2.9   285      4.4   600.6    0.00       0    999.0
 240    4:10   55.0    40    3.1   280      4.7   600.6    0.00       0    999.0
 240    4:20   54.8    40    4.6   272      5.9   600.6    0.00       0    999.0
 240    4:30   54.6    40    5.0   273      6.5   600.6    0.00       0    999.0
 240    4:40   54.6    40    3.3   287      5.3   600.6    0.00       0    999.0
 240    4:50   54.5    40    3.3   274      5.0   600.6    0.00       0    999.0
 240    5:00   54.6    41    3.9   278      5.3   600.6    0.00       0    999.0
 240    5:10   54.3    42    4.8   268      6.3   600.6    0.00       1    999.0
 240    5:20   54.3    42    4.4   267      5.8   600.6    0.00       1    999.0
 240    5:30   53.9    43    4.0   280      5.4   600.6    0.00       5    999.0
 240    5:40   54.2    42    4.3   272      5.7   600.6    0.00      15    999.0
 240    5:50   54.7    42    3.5   276      5.3   600.6    0.00      34    999.0
 240    6:00   56.2    40    3.8   273      5.5   600.6    0.00      60    999.0
 240    6:10   57.6    38    3.2   291      5.3   600.6    0.00      91    999.0
 240    6:20   58.9    36    2.7   310      4.5   600.6    0.00     120    999.0
 240    6:30   59.8    36    2.2   312      3.1   600.7    0.00     151    999.0
 240    6:40   62.1    33    0.7    88      2.2   600.7    0.00     182    999.0
 240    6:50   64.6    30    0.9   120      2.2   600.7    0.00     215    999.0
 240    7:00   64.2    31    1.4   121      2.6   600.7    0.00     249    999.0
 240    7:10   65.9    30    0.5   137      1.8   600.7    0.00     283    999.0
 240    7:20   68.5    27    0.3   101      1.5   600.7    0.00     317    999.0
 240    7:30   70.1    26    0.5   142      1.5   600.7    0.00     351    999.0
 240    7:40   68.7    28    2.6   104      4.4   600.7    0.00     384    999.0
 240    7:50   65.8    31    2.7    96      4.2   600.7    0.00     418    999.0
 240    8:00   66.4    31    2.0   110      3.7   600.7    0.00     450    999.0
 240    8:10   68.4    28    1.2    77      3.3   600.7    0.00     482    999.0
 240    8:20   69.7    26    1.7    81      3.6   600.7    0.00     514    999.0
 240    8:30   69.2    26    2.2    88      4.2   600.7    0.00     544    999.0
 240    8:40   70.2    26    2.4    77      4.1   600.7    0.00     573    999.0
 240    8:50   71.9    24    1.8   130      4.2   600.7    0.00     602    999.0
 240    9:00   73.7    23    1.9    99      4.4   600.7    0.00     631    999.0
 240    9:10   74.2    23    1.9    72      4.2   600.7    0.00     657    999.0
 240    9:20   75.4    21    1.9    89      3.9   600.7    0.00     682    999.0
 240    9:30   76.7    20    2.2   113      5.8   600.7    0.00     708    999.0
 240    9:40   77.3    20    2.2   107      5.8   600.7    0.00     731    999.0
 240    9:50   77.6    19    2.7   103      6.1   600.7    0.00     751    999.0
 240   10:00   80.8    16    2.8   149      6.1   600.7    0.00     771    999.0
 240   10:10   80.1    16    3.4   131      6.9   600.7    0.00     790    999.0
 240   10:20   82.0    15    1.7    92      4.8   600.7    0.00     808    999.0
 240   10:30   81.4    15    2.7   125      6.4   600.6    0.00     822    999.0
 240   10:40   82.5    15    2.9   111      5.8   600.4    0.00     837    999.0
 240   10:50   81.7    14    4.1    77      7.3   600.3    0.00     850    999.0

Return to Yerington, Nevada graphs page.


Western Regional Climate Center,wrcc@dri.edu